createdAt,value
2019-04-28T00:04:22.250Z,95109.3
2019-04-28T00:09:21.259Z,95179.8
2019-04-28T00:14:17.645Z,95182.4
2019-04-28T00:19:15.240Z,95188.8
2019-04-28T00:24:12.827Z,95196
2019-04-28T00:29:11.085Z,95199
2019-04-28T00:34:07.665Z,95198.5
2019-04-28T00:39:04.888Z,95205.5
2019-04-28T00:44:02.061Z,95201.2
2019-04-28T00:48:59.689Z,95197.5
2019-04-28T00:53:57.277Z,95191.8
2019-04-28T00:58:54.557Z,95197.9
2019-04-28T01:03:51.961Z,95194.7
2019-04-28T01:08:48.996Z,95204.5
2019-04-28T01:13:46.436Z,95201.2
2019-04-28T01:18:44.002Z,95203.2
2019-04-28T01:23:41.547Z,95212.2
2019-04-28T01:28:39.756Z,95211
2019-04-28T01:33:36.451Z,95206.6
2019-04-28T01:38:33.964Z,95207.5
2019-04-28T01:43:31.550Z,95123.9
2019-04-28T01:48:29.602Z,95127.1
2019-04-28T01:53:26.598Z,95131.6
2019-04-28T01:58:24.007Z,95200.7
2019-04-28T02:03:21.453Z,95194.3
2019-04-28T02:08:20.227Z,95112.8
2019-04-28T02:13:16.621Z,95118.1
2019-04-28T02:18:13.959Z,95015
2019-04-28T02:23:11.537Z,95191.7
2019-04-28T02:28:09.338Z,95111.3
2019-04-28T02:33:06.719Z,95120.6
2019-04-28T02:38:04.450Z,95002
2019-04-28T02:43:01.862Z,95124.2
2019-04-28T02:48:00.943Z,95208.3
2019-04-28T02:52:56.842Z,95213.6
2019-04-28T02:57:54.182Z,95202.9
2019-04-28T03:02:52.098Z,95215.1
2019-04-28T03:07:51.412Z,95221.9
2019-04-28T03:12:47.089Z,95221.5
2019-04-28T03:17:44.776Z,95229.7
2019-04-28T03:22:42.363Z,95233.6
2019-04-28T03:27:40.569Z,95231.8
2019-04-28T03:32:46.971Z,95163
2019-04-28T03:37:34.733Z,95183.8
2019-04-28T03:42:32.895Z,95184.9
2019-04-28T03:47:31.095Z,95284.2
2019-04-28T03:52:27.712Z,95234.9
2019-04-28T03:57:25.271Z,95259.9
2019-04-28T04:02:23.556Z,95295.2
2019-04-28T04:07:21.462Z,95300.4
2019-04-28T04:12:21.073Z,95303.8
2019-04-28T04:17:15.654Z,95304.4
2019-04-28T04:22:13.302Z,95326.8
2019-04-28T04:27:11.052Z,95311.8
2019-04-28T04:32:14.611Z,95258.3
2019-04-28T04:37:05.949Z,95326.4
2019-04-28T04:42:03.509Z,95394.8
2019-04-28T04:47:01.309Z,95304.8
2019-04-28T04:52:00.369Z,95337.3
2019-04-28T04:56:56.475Z,95343.3
2019-04-28T05:01:54.013Z,95339.8
2019-04-28T05:06:51.586Z,95343
2019-04-28T05:11:49.896Z,95342.9
2019-04-28T05:16:47.032Z,95254.1
2019-04-28T05:21:44.551Z,94993.5
2019-04-28T05:26:47.409Z,95316
2019-04-28T05:31:40.178Z,95347
2019-04-28T05:36:42.177Z,95342.9
2019-04-28T05:41:35.172Z,95338.8
2019-04-28T05:46:33.329Z,95258.7
2019-04-28T05:51:30.759Z,95340
2019-04-28T05:56:29.557Z,95333
2019-04-28T06:01:25.694Z,95338.3
2019-04-28T06:06:23.263Z,95340.5
2019-04-28T06:11:20.921Z,95340.8
2019-04-28T06:16:19.541Z,95337.1
2019-04-28T06:21:15.683Z,95339
2019-04-28T06:26:13.632Z,95335.5
2019-04-28T06:31:10.557Z,95336.4
2019-04-28T06:36:07.912Z,95332.3
2019-04-28T06:41:05.388Z,95321.3
2019-04-28T06:46:02.499Z,95331.8
2019-04-28T06:51:00.067Z,95331.1
2019-04-28T06:55:57.575Z,95334.1
2019-04-28T07:00:55.137Z,95332
2019-04-28T07:05:52.689Z,95283.4
2019-04-28T07:10:50.344Z,95338.9
2019-04-28T07:15:47.925Z,95347.7
2019-04-28T07:20:45.623Z,95334.7
2019-04-28T07:25:43.509Z,95349.1
2019-04-28T07:30:40.859Z,95344.4
2019-04-28T07:35:38.180Z,95354.1
2019-04-28T07:40:35.795Z,95351.3
2019-04-28T07:45:33.141Z,95351.1
2019-04-28T07:50:30.679Z,95351.2
2019-04-28T07:55:28.155Z,95347.4
2019-04-28T08:00:25.716Z,95344.8
2019-04-28T08:05:23.349Z,95338.3
2019-04-28T08:10:20.959Z,95339.5
2019-04-28T08:15:18.267Z,95347.1
2019-04-28T08:20:15.819Z,95350.2
2019-04-28T08:25:13.536Z,95347.4
2019-04-28T08:30:11.452Z,95342.7
2019-04-28T08:35:09.025Z,95339.3
2019-04-28T08:40:06.782Z,95332.5
2019-04-28T08:45:04.525Z,95230.2
2019-04-28T08:50:02.233Z,95346.5
2019-04-28T08:54:59.917Z,95336.3
2019-04-28T08:59:57.354Z,95323.2
2019-04-28T09:04:55.173Z,95247.8
2019-04-28T09:09:52.778Z,95312.6
2019-04-28T09:14:50.730Z,95317
2019-04-28T09:19:48.354Z,95323.6
2019-04-28T09:24:45.926Z,95323.2
2019-04-28T09:29:43.591Z,95319.2
2019-04-28T09:34:40.768Z,95306.1
2019-04-28T09:39:38.476Z,95304.5
2019-04-28T09:44:35.798Z,95316.3
2019-04-28T09:49:33.600Z,95321.2
2019-04-28T09:54:31.141Z,95304
2019-04-28T09:59:28.936Z,95295.6
2019-04-28T10:04:26.618Z,95294.2
2019-04-28T10:09:23.869Z,95287.5
2019-04-28T10:14:21.418Z,95281.3
2019-04-28T10:19:19.189Z,95289.9
2019-04-28T10:24:16.779Z,95288.2
2019-04-28T10:29:14.388Z,95270.6
2019-04-28T10:34:12.160Z,95265.4
2019-04-28T10:39:09.781Z,95261.8
2019-04-28T10:44:08.635Z,95258.8
2019-04-28T10:49:04.997Z,95250.1
2019-04-28T10:54:02.131Z,95251.4
2019-04-28T10:58:59.906Z,95241
2019-04-28T11:03:57.751Z,95236.1
2019-04-28T11:08:55.272Z,95228.1
2019-04-28T11:13:52.511Z,95274.7
2019-04-28T11:18:50.023Z,95237.3
2019-04-28T11:23:47.787Z,95275.2
2019-04-28T11:28:45.654Z,95269.3
2019-04-28T11:33:42.838Z,95273.5
2019-04-28T11:38:40.655Z,95228.8
2019-04-28T11:43:38.160Z,95219.7
2019-04-28T11:48:35.732Z,95122.1
2019-04-28T11:53:33.450Z,95130.7
2019-04-28T11:58:30.868Z,95143.6
2019-04-28T12:03:28.346Z,95121
2019-04-28T12:08:26.085Z,95114.6
2019-04-28T12:13:23.524Z,95141.3
2019-04-28T12:18:20.983Z,95106.9
2019-04-28T12:23:18.980Z,95095.7
2019-04-28T12:28:16.756Z,95085.2
2019-04-28T12:33:14.357Z,95139.3
2019-04-28T12:38:11.760Z,95087.1
2019-04-28T12:43:09.385Z,95119
2019-04-28T12:48:07.172Z,95063.3
2019-04-28T12:53:04.851Z,95038
2019-04-28T12:58:02.448Z,95078.3
2019-04-28T13:03:00.230Z,95070.4
2019-04-28T13:07:57.737Z,95029.2
2019-04-28T13:12:55.405Z,95176.5
2019-04-28T13:17:52.840Z,95161.1
2019-04-28T13:22:50.189Z,95106
2019-04-28T13:27:47.752Z,95149.3
2019-04-28T13:32:45.473Z,95146.9
2019-04-28T13:37:43.365Z,95120.4
2019-04-28T13:42:41.182Z,95055.9
2019-04-28T13:47:38.993Z,95026.5
2019-04-28T13:52:37.218Z,95026
2019-04-28T13:57:35.314Z,95014.2
2019-04-28T14:02:33.440Z,95014.1
2019-04-28T14:07:31.067Z,95021.4
2019-04-28T14:12:28.800Z,95009.3
2019-04-28T14:17:26.248Z,95012.3
2019-04-28T14:22:24.110Z,95008.6
2019-04-28T14:27:21.805Z,95013.6
2019-04-28T14:32:19.184Z,95003.8
2019-04-28T14:37:16.729Z,95001.1
2019-04-28T14:42:14.508Z,94972.2
2019-04-28T14:47:12.112Z,94985.8
2019-04-28T14:52:09.804Z,94985.4
2019-04-28T14:57:07.516Z,94988.8
2019-04-28T15:02:05.280Z,94987.4
2019-04-28T15:07:02.973Z,94988.2
2019-04-28T15:12:00.620Z,94990.8
2019-04-28T15:16:58.279Z,94987.6
2019-04-28T15:21:55.497Z,94989.9
2019-04-28T15:26:53.310Z,94994.4
2019-04-28T15:31:51.238Z,94984.1
2019-04-28T15:36:48.774Z,95114.9
2019-04-28T15:41:46.389Z,95037.8
2019-04-28T15:46:43.948Z,95097
2019-04-28T15:51:41.474Z,94972.1
2019-04-28T15:56:39.210Z,94969
2019-04-28T16:01:36.708Z,95105.2
2019-04-28T16:06:34.353Z,95097.3
2019-04-28T16:11:32.085Z,95090
2019-04-28T16:16:29.746Z,95078.1
2019-04-28T16:21:27.521Z,95039.7
2019-04-28T16:26:25.210Z,95082.4
2019-04-28T16:31:22.932Z,95079.5
2019-04-28T16:36:20.551Z,95073.8
2019-04-28T16:41:18.001Z,95083.6
2019-04-28T16:46:15.337Z,94955.1
2019-04-28T16:51:14.573Z,95018.2
2019-04-28T16:56:10.374Z,95089.4
2019-04-28T17:01:07.791Z,95048.4
2019-04-28T17:06:05.353Z,95054.8
2019-04-28T17:11:02.395Z,95076.2
2019-04-28T17:16:00.117Z,95113.5
2019-04-28T17:20:57.530Z,95131
2019-04-28T17:25:55.021Z,95094.2
2019-04-28T17:30:52.611Z,95040
2019-04-28T17:35:50.184Z,95062
2019-04-28T17:40:47.930Z,95070.5
2019-04-28T17:45:45.574Z,95048.1
2019-04-28T17:50:45.294Z,95077.8
2019-04-28T17:55:40.933Z,95082.5
2019-04-28T18:00:38.468Z,95079.5
2019-04-28T18:05:36.198Z,95086.3
2019-04-28T18:10:33.929Z,95090.8
2019-04-28T18:15:31.507Z,95114.5
2019-04-28T18:20:30.141Z,95095.2
2019-04-28T18:25:26.997Z,95090
2019-04-28T18:30:24.890Z,95100.6
2019-04-28T18:35:22.500Z,95112.1
2019-04-28T18:40:20.181Z,95109
2019-04-28T18:45:17.731Z,95121.3
2019-04-28T18:50:14.989Z,95121.2
2019-04-28T18:55:12.522Z,95126.5
2019-04-28T19:00:09.796Z,95135.3
2019-04-28T19:05:10.368Z,95128.9
2019-04-28T19:10:05.449Z,95132.1
2019-04-28T19:15:03.024Z,95127.9
2019-04-28T19:20:00.587Z,95132.8
2019-04-28T19:24:58.207Z,95135.3
2019-04-28T19:29:55.882Z,95141.1
2019-04-28T19:34:53.431Z,95140
2019-04-28T19:39:50.956Z,95140.4
2019-04-28T19:44:48.590Z,95144.6
2019-04-28T19:49:45.585Z,95139.6
2019-04-28T19:54:43.019Z,95140.7
2019-04-28T19:59:40.634Z,95152.8
2019-04-28T20:04:38.737Z,95082.4
2019-04-28T20:09:36.155Z,95146.6
2019-04-28T20:14:33.595Z,95144.3
2019-04-28T20:19:31.127Z,95146.2
2019-04-28T20:24:28.892Z,95146.5
2019-04-28T20:29:25.949Z,95145.4
2019-04-28T20:34:23.698Z,94925
2019-04-28T20:39:20.842Z,95137.3
2019-04-28T20:44:18.427Z,95140.3
2019-04-28T20:49:15.784Z,95136.2
2019-04-28T20:54:13.303Z,95134.6
2019-04-28T20:59:10.922Z,95133.5
2019-04-28T21:04:08.339Z,95106.3
2019-04-28T21:09:06.066Z,95122.2
2019-04-28T21:14:03.568Z,95126.6
2019-04-28T21:19:01.109Z,95119.1
2019-04-28T21:23:58.610Z,95135.9
2019-04-28T21:28:56.082Z,95050.8
2019-04-28T21:33:53.594Z,95129.6
2019-04-28T21:38:51.376Z,95136.5
2019-04-28T21:43:48.932Z,95132.7
2019-04-28T21:48:46.624Z,95099.2
2019-04-28T21:53:44.272Z,95139.4
2019-04-28T21:58:41.632Z,95137.3
2019-04-28T22:03:39.172Z,95134.6
2019-04-28T22:08:36.769Z,95135.3
2019-04-28T22:13:34.004Z,95138.8
2019-04-28T22:18:31.375Z,95138.5
2019-04-28T22:23:28.881Z,95132.4
2019-04-28T22:28:26.200Z,95133
2019-04-28T22:33:23.577Z,95128.9
2019-04-28T22:38:21.078Z,95126.3
2019-04-28T22:43:18.776Z,95126
2019-04-28T22:48:16.492Z,95025.9
2019-04-28T22:53:14.174Z,95088.6
2019-04-28T22:58:11.251Z,95125.9
2019-04-28T23:03:08.685Z,95123.4
2019-04-28T23:08:06.164Z,95114.8
2019-04-28T23:13:03.635Z,95114.6
2019-04-28T23:18:00.801Z,95112.8
2019-04-28T23:22:58.245Z,95114.9
2019-04-28T23:27:55.848Z,95109.4
2019-04-28T23:32:53.432Z,95110
2019-04-28T23:37:51.098Z,95107.9
2019-04-28T23:42:48.569Z,95106.9
2019-04-28T23:47:46.167Z,95110.5
2019-04-28T23:52:43.837Z,95100.8
2019-04-28T23:57:41.224Z,95098.7
